sensor_id;sensor_type;location;lat;lon;timestamp;P1;P2;P0
27143;PMS1003;14672;50.250;8.312;2022-08-02T00:00:15;14.00;13.33;7.00
27143;PMS1003;14672;50.250;8.312;2022-08-02T00:02:43;14.75;13.50;7.75
27143;PMS1003;14672;50.250;8.312;2022-08-02T00:05:11;16.50;14.50;7.25
27143;PMS1003;14672;50.250;8.312;2022-08-02T00:07:38;15.25;14.50;8.00
27143;PMS1003;14672;50.250;8.312;2022-08-02T00:10:04;14.25;14.25;8.00
27143;PMS1003;14672;50.250;8.312;2022-08-02T00:12:32;15.25;14.25;7.75
27143;PMS1003;14672;50.250;8.312;2022-08-02T00:14:58;16.00;15.33;9.00
27143;PMS1003;14672;50.250;8.312;2022-08-02T00:17:24;13.50;13.50;7.75
27143;PMS1003;14672;50.250;8.312;2022-08-02T00:19:50;14.00;14.00;8.00
27143;PMS1003;14672;50.250;8.312;2022-08-02T00:22:16;16.00;15.75;8.25
27143;PMS1003;14672;50.250;8.312;2022-08-02T00:24:42;14.67;14.67;7.33
27143;PMS1003;14672;50.250;8.312;2022-08-02T00:27:07;13.67;13.67;7.67
27143;PMS1003;14672;50.250;8.312;2022-08-02T00:29:34;15.50;15.50;7.00
27143;PMS1003;14672;50.250;8.312;2022-08-02T00:32:01;14.75;12.50;6.25
27143;PMS1003;14672;50.250;8.312;2022-08-02T00:34:27;15.25;15.00;9.00
27143;PMS1003;14672;50.250;8.312;2022-08-02T00:36:53;15.67;15.00;8.33
27143;PMS1003;14672;50.250;8.312;2022-08-02T00:39:19;18.00;18.00;9.67
27143;PMS1003;14672;50.250;8.312;2022-08-02T00:41:49;15.00;15.00;8.50
27143;PMS1003;14672;50.250;8.312;2022-08-02T00:44:17;15.00;14.75;8.00
27143;PMS1003;14672;50.250;8.312;2022-08-02T00:46:45;15.00;15.00;7.00
27143;PMS1003;14672;50.250;8.312;2022-08-02T00:49:12;16.00;15.00;8.50
27143;PMS1003;14672;50.250;8.312;2022-08-02T00:51:39;16.00;16.00;7.25
27143;PMS1003;14672;50.250;8.312;2022-08-02T00:54:06;13.50;13.50;8.00
27143;PMS1003;14672;50.250;8.312;2022-08-02T00:56:33;16.00;15.00;8.00
27143;PMS1003;14672;50.250;8.312;2022-08-02T00:58:59;15.75;15.50;8.00
27143;PMS1003;14672;50.250;8.312;2022-08-02T01:01:27;16.00;13.75;7.75
27143;PMS1003;14672;50.250;8.312;2022-08-02T01:04:07;13.50;13.00;7.00
27143;PMS1003;14672;50.250;8.312;2022-08-02T01:06:36;16.75;16.75;8.50
27143;PMS1003;14672;50.250;8.312;2022-08-02T01:09:05;18.25;15.50;8.00
27143;PMS1003;14672;50.250;8.312;2022-08-02T01:11:31;15.00;14.50;8.00
27143;PMS1003;14672;50.250;8.312;2022-08-02T01:14:06;15.25;15.25;9.50
27143;PMS1003;14672;50.250;8.312;2022-08-02T01:16:37;15.50;15.00;9.00
27143;PMS1003;14672;50.250;8.312;2022-08-02T01:25:13;15.50;13.50;7.50
27143;PMS1003;14672;50.250;8.312;2022-08-02T01:30:34;13.50;13.50;9.00
27143;PMS1003;14672;50.250;8.312;2022-08-02T01:33:02;14.75;14.75;9.00
27143;PMS1003;14672;50.250;8.312;2022-08-02T01:35:36;17.00;17.00;7.00
27143;PMS1003;14672;50.250;8.312;2022-08-02T01:38:08;14.25;14.25;8.00
27143;PMS1003;14672;50.250;8.312;2022-08-02T01:40:43;13.25;13.25;7.25
27143;PMS1003;14672;50.250;8.312;2022-08-02T01:43:10;14.75;14.75;7.00
27143;PMS1003;14672;50.250;8.312;2022-08-02T01:45:39;16.00;15.50;8.50
27143;PMS1003;14672;50.250;8.312;2022-08-02T01:48:06;14.75;14.75;9.50
27143;PMS1003;14672;50.250;8.312;2022-08-02T01:50:34;16.50;14.75;7.75
27143;PMS1003;14672;50.250;8.312;2022-08-02T01:53:04;14.75;14.50;8.00
27143;PMS1003;14672;50.250;8.312;2022-08-02T01:58:04;16.50;16.00;8.75
27143;PMS1003;14672;50.250;8.312;2022-08-02T02:00:32;18.00;15.00;8.75
27143;PMS1003;14672;50.250;8.312;2022-08-02T02:03:04;16.00;16.00;9.50
27143;PMS1003;14672;50.250;8.312;2022-08-02T02:05:33;21.25;19.25;9.75
27143;PMS1003;14672;50.250;8.312;2022-08-02T02:08:03;18.00;15.50;7.50
27143;PMS1003;14672;50.250;8.312;2022-08-02T02:10:32;14.75;14.75;8.50
27143;PMS1003;14672;50.250;8.312;2022-08-02T02:13:03;18.00;17.25;9.75
27143;PMS1003;14672;50.250;8.312;2022-08-02T02:15:39;14.75;14.75;8.50
27143;PMS1003;14672;50.250;8.312;2022-08-02T02:18:12;14.25;14.25;7.50
27143;PMS1003;14672;50.250;8.312;2022-08-02T02:20:46;21.75;18.00;8.50
27143;PMS1003;14672;50.250;8.312;2022-08-02T02:23:12;18.50;18.50;9.25
27143;PMS1003;14672;50.250;8.312;2022-08-02T02:25:41;16.75;16.00;8.25
27143;PMS1003;14672;50.250;8.312;2022-08-02T02:28:13;15.25;15.25;9.00
27143;PMS1003;14672;50.250;8.312;2022-08-02T02:30:54;19.50;17.00;10.00
27143;PMS1003;14672;50.250;8.312;2022-08-02T02:33:34;14.50;14.50;7.25
27143;PMS1003;14672;50.250;8.312;2022-08-02T02:36:06;17.25;17.25;9.25
27143;PMS1003;14672;50.250;8.312;2022-08-02T02:38:34;13.75;13.75;7.00
27143;PMS1003;14672;50.250;8.312;2022-08-02T02:41:03;15.50;15.50;8.75
27143;PMS1003;14672;50.250;8.312;2022-08-02T02:43:31;18.75;16.75;9.00
27143;PMS1003;14672;50.250;8.312;2022-08-02T02:46:03;17.25;17.25;9.00
27143;PMS1003;14672;50.250;8.312;2022-08-02T02:48:31;17.00;17.00;10.50
27143;PMS1003;14672;50.250;8.312;2022-08-02T02:50:59;18.75;15.75;7.25
27143;PMS1003;14672;50.250;8.312;2022-08-02T02:53:28;17.50;16.00;9.25
27143;PMS1003;14672;50.250;8.312;2022-08-02T02:55:55;16.50;16.50;9.00
27143;PMS1003;14672;50.250;8.312;2022-08-02T02:58:22;15.25;15.00;8.25
27143;PMS1003;14672;50.250;8.312;2022-08-02T03:00:49;15.00;15.00;9.00
27143;PMS1003;14672;50.250;8.312;2022-08-02T03:03:34;16.25;16.00;8.00
27143;PMS1003;14672;50.250;8.312;2022-08-02T03:06:01;28.00;26.75;15.75
27143;PMS1003;14672;50.250;8.312;2022-08-02T03:08:27;18.67;18.00;10.00
27143;PMS1003;14672;50.250;8.312;2022-08-02T03:10:53;17.25;15.00;8.50
27143;PMS1003;14672;50.250;8.312;2022-08-02T03:13:20;15.75;14.50;9.50
27143;PMS1003;14672;50.250;8.312;2022-08-02T03:15:47;14.75;14.75;7.50
27143;PMS1003;14672;50.250;8.312;2022-08-02T03:18:33;18.50;18.50;9.50
27143;PMS1003;14672;50.250;8.312;2022-08-02T03:21:02;14.25;14.25;9.00
27143;PMS1003;14672;50.250;8.312;2022-08-02T03:23:32;15.50;15.00;7.75
27143;PMS1003;14672;50.250;8.312;2022-08-02T03:25:58;15.25;15.25;8.50
27143;PMS1003;14672;50.250;8.312;2022-08-02T03:28:25;18.25;15.75;8.00
27143;PMS1003;14672;50.250;8.312;2022-08-02T03:30:51;16.75;16.75;10.00
27143;PMS1003;14672;50.250;8.312;2022-08-02T03:33:18;15.50;15.50;8.25
27143;PMS1003;14672;50.250;8.312;2022-08-02T03:35:46;18.00;18.00;10.25
27143;PMS1003;14672;50.250;8.312;2022-08-02T03:38:14;19.00;18.25;9.25
27143;PMS1003;14672;50.250;8.312;2022-08-02T03:40:43;16.25;15.75;8.75
27143;PMS1003;14672;50.250;8.312;2022-08-02T03:43:10;16.75;16.00;8.00
27143;PMS1003;14672;50.250;8.312;2022-08-02T03:45:43;18.25;18.25;11.50
27143;PMS1003;14672;50.250;8.312;2022-08-02T03:48:12;16.50;16.50;10.00
27143;PMS1003;14672;50.250;8.312;2022-08-02T03:50:40;20.25;19.50;11.25
27143;PMS1003;14672;50.250;8.312;2022-08-02T03:53:09;17.00;16.00;9.50
27143;PMS1003;14672;50.250;8.312;2022-08-02T03:55:36;18.75;18.50;11.00
27143;PMS1003;14672;50.250;8.312;2022-08-02T03:58:03;22.50;20.00;9.00
27143;PMS1003;14672;50.250;8.312;2022-08-02T04:00:29;20.00;20.00;11.75
27143;PMS1003;14672;50.250;8.312;2022-08-02T04:02:55;19.67;19.00;9.00
27143;PMS1003;14672;50.250;8.312;2022-08-02T04:05:21;21.00;19.33;9.67
27143;PMS1003;14672;50.250;8.312;2022-08-02T04:07:46;18.33;18.33;11.00
27143;PMS1003;14672;50.250;8.312;2022-08-02T04:10:13;22.00;22.00;12.00
27143;PMS1003;14672;50.250;8.312;2022-08-02T04:12:39;19.00;16.00;9.75
27143;PMS1003;14672;50.250;8.312;2022-08-02T04:15:05;19.25;19.25;11.50
27143;PMS1003;14672;50.250;8.312;2022-08-02T04:17:37;17.75;17.75;10.00
27143;PMS1003;14672;50.250;8.312;2022-08-02T04:20:13;16.75;15.75;9.00
27143;PMS1003;14672;50.250;8.312;2022-08-02T04:22:46;19.25;18.75;11.00
27143;PMS1003;14672;50.250;8.312;2022-08-02T04:25:30;17.50;17.25;9.75
27143;PMS1003;14672;50.250;8.312;2022-08-02T04:28:01;21.75;21.00;11.50
27143;PMS1003;14672;50.250;8.312;2022-08-02T04:30:27;30.50;30.00;18.00
27143;PMS1003;14672;50.250;8.312;2022-08-02T04:32:54;21.50;19.00;11.50
27143;PMS1003;14672;50.250;8.312;2022-08-02T04:35:20;15.50;15.50;9.75
27143;PMS1003;14672;50.250;8.312;2022-08-02T04:37:47;19.00;17.75;8.50
27143;PMS1003;14672;50.250;8.312;2022-08-02T04:40:14;18.00;15.50;9.00
27143;PMS1003;14672;50.250;8.312;2022-08-02T04:42:40;21.00;18.25;8.25
27143;PMS1003;14672;50.250;8.312;2022-08-02T04:45:06;19.67;19.00;11.33
27143;PMS1003;14672;50.250;8.312;2022-08-02T04:47:33;16.00;16.00;8.75
27143;PMS1003;14672;50.250;8.312;2022-08-02T04:49:59;18.00;17.00;8.75
27143;PMS1003;14672;50.250;8.312;2022-08-02T04:52:25;18.50;18.50;9.75
27143;PMS1003;14672;50.250;8.312;2022-08-02T04:54:51;16.00;15.50;9.50
27143;PMS1003;14672;50.250;8.312;2022-08-02T04:57:21;20.50;20.00;11.75
27143;PMS1003;14672;50.250;8.312;2022-08-02T05:00:06;19.50;19.50;9.00
27143;PMS1003;14672;50.250;8.312;2022-08-02T05:02:35;18.25;17.25;9.50
27143;PMS1003;14672;50.250;8.312;2022-08-02T05:05:01;18.00;16.67;11.00
27143;PMS1003;14672;50.250;8.312;2022-08-02T05:07:27;21.25;21.25;13.00
27143;PMS1003;14672;50.250;8.312;2022-08-02T05:09:53;20.67;18.00;10.00
27143;PMS1003;14672;50.250;8.312;2022-08-02T05:12:19;16.00;16.00;8.33
27143;PMS1003;14672;50.250;8.312;2022-08-02T05:14:46;18.00;18.00;10.00
27143;PMS1003;14672;50.250;8.312;2022-08-02T05:17:13;15.00;15.00;8.00
27143;PMS1003;14672;50.250;8.312;2022-08-02T05:19:39;18.00;18.00;9.50
27143;PMS1003;14672;50.250;8.312;2022-08-02T05:22:06;14.25;14.25;8.00
27143;PMS1003;14672;50.250;8.312;2022-08-02T05:24:32;18.75;18.75;11.00
27143;PMS1003;14672;50.250;8.312;2022-08-02T05:26:58;16.00;16.00;9.00
27143;PMS1003;14672;50.250;8.312;2022-08-02T05:29:23;15.00;15.00;9.00
27143;PMS1003;14672;50.250;8.312;2022-08-02T05:31:49;20.33;18.67;10.67
27143;PMS1003;14672;50.250;8.312;2022-08-02T05:34:15;19.67;18.00;9.00
27143;PMS1003;14672;50.250;8.312;2022-08-02T05:36:41;15.25;14.75;7.75
27143;PMS1003;14672;50.250;8.312;2022-08-02T05:39:07;15.67;15.67;9.67
27143;PMS1003;14672;50.250;8.312;2022-08-02T05:41:33;17.75;17.75;10.00
27143;PMS1003;14672;50.250;8.312;2022-08-02T05:43:59;22.75;18.50;10.00
27143;PMS1003;14672;50.250;8.312;2022-08-02T05:46:26;20.00;18.75;11.00
27143;PMS1003;14672;50.250;8.312;2022-08-02T05:48:51;17.67;17.67;11.33
27143;PMS1003;14672;50.250;8.312;2022-08-02T05:51:28;18.00;18.00;10.67
27143;PMS1003;14672;50.250;8.312;2022-08-02T06:00:27;21.00;21.00;13.33
27143;PMS1003;14672;50.250;8.312;2022-08-02T06:03:04;19.00;18.50;9.25
27143;PMS1003;14672;50.250;8.312;2022-08-02T06:06:12;20.00;20.00;11.25
27143;PMS1003;14672;50.250;8.312;2022-08-02T06:08:43;21.75;21.75;12.50
27143;PMS1003;14672;50.250;8.312;2022-08-02T06:11:15;18.75;18.75;11.00
27143;PMS1003;14672;50.250;8.312;2022-08-02T06:13:45;19.50;19.50;10.00
27143;PMS1003;14672;50.250;8.312;2022-08-02T06:16:11;23.33;21.33;10.00
27143;PMS1003;14672;50.250;8.312;2022-08-02T06:18:40;15.25;15.00;8.25
27143;PMS1003;14672;50.250;8.312;2022-08-02T06:21:07;20.00;20.00;10.00
27143;PMS1003;14672;50.250;8.312;2022-08-02T06:23:35;20.25;18.50;9.00
27143;PMS1003;14672;50.250;8.312;2022-08-02T06:26:08;18.25;17.25;10.50
27143;PMS1003;14672;50.250;8.312;2022-08-02T06:28:37;17.00;17.00;10.00
27143;PMS1003;14672;50.250;8.312;2022-08-02T06:31:04;17.75;17.75;9.50
27143;PMS1003;14672;50.250;8.312;2022-08-02T06:33:31;19.50;18.25;10.00
27143;PMS1003;14672;50.250;8.312;2022-08-02T06:36:01;30.25;29.00;18.75
27143;PMS1003;14672;50.250;8.312;2022-08-02T06:39:05;28.50;28.50;15.75
27143;PMS1003;14672;50.250;8.312;2022-08-02T06:41:53;20.75;19.75;10.50
27143;PMS1003;14672;50.250;8.312;2022-08-02T06:44:26;20.25;20.25;11.25
27143;PMS1003;14672;50.250;8.312;2022-08-02T06:46:53;18.75;18.00;9.00
27143;PMS1003;14672;50.250;8.312;2022-08-02T06:49:19;20.33;19.33;9.33
27143;PMS1003;14672;50.250;8.312;2022-08-02T06:51:45;20.00;18.00;10.33
27143;PMS1003;14672;50.250;8.312;2022-08-02T06:54:11;21.00;19.00;10.00
27143;PMS1003;14672;50.250;8.312;2022-08-02T06:56:37;24.67;24.67;17.33
27143;PMS1003;14672;50.250;8.312;2022-08-02T06:59:02;20.33;20.33;11.00
27143;PMS1003;14672;50.250;8.312;2022-08-02T07:01:28;18.33;17.67;9.67
27143;PMS1003;14672;50.250;8.312;2022-08-02T07:03:54;16.00;16.00;9.33
27143;PMS1003;14672;50.250;8.312;2022-08-02T07:06:20;17.00;17.00;11.00
27143;PMS1003;14672;50.250;8.312;2022-08-02T07:08:46;19.67;19.67;9.67
27143;PMS1003;14672;50.250;8.312;2022-08-02T07:11:12;17.67;16.33;9.00
27143;PMS1003;14672;50.250;8.312;2022-08-02T07:13:37;21.00;20.33;10.67
27143;PMS1003;14672;50.250;8.312;2022-08-02T07:16:03;22.00;22.00;12.33
27143;PMS1003;14672;50.250;8.312;2022-08-02T07:18:30;18.50;18.50;11.25
27143;PMS1003;14672;50.250;8.312;2022-08-02T07:20:56;17.00;17.00;9.00
27143;PMS1003;14672;50.250;8.312;2022-08-02T07:23:23;19.00;19.00;10.00
27143;PMS1003;14672;50.250;8.312;2022-08-02T07:25:48;18.67;18.67;11.00
27143;PMS1003;14672;50.250;8.312;2022-08-02T07:28:14;19.33;18.00;9.00
27143;PMS1003;14672;50.250;8.312;2022-08-02T07:30:40;19.67;17.00;8.00
27143;PMS1003;14672;50.250;8.312;2022-08-02T07:33:07;18.25;15.50;8.75
27143;PMS1003;14672;50.250;8.312;2022-08-02T07:35:34;16.50;16.50;8.25
27143;PMS1003;14672;50.250;8.312;2022-08-02T07:38:00;18.25;18.25;9.75
27143;PMS1003;14672;50.250;8.312;2022-08-02T07:40:26;21.25;19.00;11.00
27143;PMS1003;14672;50.250;8.312;2022-08-02T07:42:53;16.50;15.75;9.75
27143;PMS1003;14672;50.250;8.312;2022-08-02T07:45:21;15.75;15.75;7.75
27143;PMS1003;14672;50.250;8.312;2022-08-02T07:47:48;12.25;10.25;5.50
27143;PMS1003;14672;50.250;8.312;2022-08-02T07:50:16;12.50;12.50;7.00
27143;PMS1003;14672;50.250;8.312;2022-08-02T07:52:44;10.00;9.50;4.25
27143;PMS1003;14672;50.250;8.312;2022-08-02T07:55:11;12.25;11.75;6.00
27143;PMS1003;14672;50.250;8.312;2022-08-02T07:57:39;11.50;11.50;6.75
27143;PMS1003;14672;50.250;8.312;2022-08-02T08:00:05;12.00;12.00;6.00
27143;PMS1003;14672;50.250;8.312;2022-08-02T08:02:35;11.00;11.00;6.75
27143;PMS1003;14672;50.250;8.312;2022-08-02T08:05:02;11.00;11.00;6.50
27143;PMS1003;14672;50.250;8.312;2022-08-02T08:07:28;10.00;10.00;5.00
27143;PMS1003;14672;50.250;8.312;2022-08-02T08:09:54;11.75;11.75;6.00
27143;PMS1003;14672;50.250;8.312;2022-08-02T08:12:20;11.00;11.00;5.00
27143;PMS1003;14672;50.250;8.312;2022-08-02T08:14:46;12.00;12.00;6.00
27143;PMS1003;14672;50.250;8.312;2022-08-02T08:17:12;14.33;13.67;8.00
27143;PMS1003;14672;50.250;8.312;2022-08-02T08:19:38;14.50;13.75;8.75
27143;PMS1003;14672;50.250;8.312;2022-08-02T08:22:04;10.00;9.33;5.00
27143;PMS1003;14672;50.250;8.312;2022-08-02T08:24:30;13.00;13.00;8.33
27143;PMS1003;14672;50.250;8.312;2022-08-02T08:26:56;10.00;10.00;6.00
27143;PMS1003;14672;50.250;8.312;2022-08-02T08:29:22;12.00;10.33;5.00
27143;PMS1003;14672;50.250;8.312;2022-08-02T08:31:48;12.50;11.25;6.00
27143;PMS1003;14672;50.250;8.312;2022-08-02T08:34:14;11.50;11.50;6.00
27143;PMS1003;14672;50.250;8.312;2022-08-02T08:36:41;11.00;10.25;6.00
27143;PMS1003;14672;50.250;8.312;2022-08-02T08:39:07;12.50;11.00;6.00
27143;PMS1003;14672;50.250;8.312;2022-08-02T08:41:34;11.50;10.50;4.75
27143;PMS1003;14672;50.250;8.312;2022-08-02T08:44:01;8.25;8.25;4.25
27143;PMS1003;14672;50.250;8.312;2022-08-02T08:46:29;10.00;9.75;4.75
27143;PMS1003;14672;50.250;8.312;2022-08-02T08:49:08;11.00;11.00;5.75
27143;PMS1003;14672;50.250;8.312;2022-08-02T08:51:44;8.25;8.25;4.00
27143;PMS1003;14672;50.250;8.312;2022-08-02T08:54:14;10.67;10.67;5.67
27143;PMS1003;14672;50.250;8.312;2022-08-02T08:56:41;13.00;12.50;7.50
27143;PMS1003;14672;50.250;8.312;2022-08-02T08:59:08;11.75;11.75;6.00
27143;PMS1003;14672;50.250;8.312;2022-08-02T09:01:34;9.00;9.00;5.25
27143;PMS1003;14672;50.250;8.312;2022-08-02T09:04:00;9.75;9.75;6.50
27143;PMS1003;14672;50.250;8.312;2022-08-02T09:06:26;10.67;10.67;4.00
27143;PMS1003;14672;50.250;8.312;2022-08-02T09:08:52;10.00;10.00;5.00
27143;PMS1003;14672;50.250;8.312;2022-08-02T09:11:21;9.00;9.00;4.00
27143;PMS1003;14672;50.250;8.312;2022-08-02T09:13:53;11.00;10.25;6.25
27143;PMS1003;14672;50.250;8.312;2022-08-02T09:19:16;10.00;10.00;6.00
27143;PMS1003;14672;50.250;8.312;2022-08-02T09:21:59;9.25;9.25;6.00
27143;PMS1003;14672;50.250;8.312;2022-08-02T09:24:29;12.25;12.25;7.00
27143;PMS1003;14672;50.250;8.312;2022-08-02T09:27:09;9.25;9.25;5.00
27143;PMS1003;14672;50.250;8.312;2022-08-02T09:29:44;9.25;9.25;5.00
27143;PMS1003;14672;50.250;8.312;2022-08-02T09:32:18;8.50;8.50;4.75
27143;PMS1003;14672;50.250;8.312;2022-08-02T09:39:56;10.50;10.50;6.50
27143;PMS1003;14672;50.250;8.312;2022-08-02T09:42:27;12.75;12.00;7.50
27143;PMS1003;14672;50.250;8.312;2022-08-02T09:44:57;11.75;11.75;7.50
27143;PMS1003;14672;50.250;8.312;2022-08-02T09:47:26;13.25;13.25;10.00
27143;PMS1003;14672;50.250;8.312;2022-08-02T09:49:54;9.50;8.75;4.75
27143;PMS1003;14672;50.250;8.312;2022-08-02T09:52:25;10.00;10.00;5.00
27143;PMS1003;14672;50.250;8.312;2022-08-02T09:54:53;10.00;10.00;5.75
27143;PMS1003;14672;50.250;8.312;2022-08-02T09:57:25;10.50;10.00;5.75
27143;PMS1003;14672;50.250;8.312;2022-08-02T09:59:53;10.50;10.50;6.00
27143;PMS1003;14672;50.250;8.312;2022-08-02T10:02:21;13.75;13.25;8.00
27143;PMS1003;14672;50.250;8.312;2022-08-02T10:04:47;11.33;11.33;6.67
27143;PMS1003;14672;50.250;8.312;2022-08-02T10:07:13;11.50;11.50;7.00
27143;PMS1003;14672;50.250;8.312;2022-08-02T10:09:40;12.00;12.00;6.00
27143;PMS1003;14672;50.250;8.312;2022-08-02T10:12:09;13.50;13.50;8.75
27143;PMS1003;14672;50.250;8.312;2022-08-02T10:14:37;11.50;11.50;7.00
27143;PMS1003;14672;50.250;8.312;2022-08-02T10:17:03;9.25;9.25;6.25
27143;PMS1003;14672;50.250;8.312;2022-08-02T10:19:31;10.25;10.25;6.50
27143;PMS1003;14672;50.250;8.312;2022-08-02T10:22:05;11.75;11.75;6.25
27143;PMS1003;14672;50.250;8.312;2022-08-02T10:24:38;10.00;10.00;7.00
27143;PMS1003;14672;50.250;8.312;2022-08-02T10:27:05;10.00;10.00;5.00
27143;PMS1003;14672;50.250;8.312;2022-08-02T10:29:39;9.75;9.75;5.75
27143;PMS1003;14672;50.250;8.312;2022-08-02T10:32:10;14.50;13.00;6.50
27143;PMS1003;14672;50.250;8.312;2022-08-02T10:35:03;8.75;8.75;5.50
27143;PMS1003;14672;50.250;8.312;2022-08-02T10:37:35;10.00;10.00;5.75
27143;PMS1003;14672;50.250;8.312;2022-08-02T10:40:04;9.25;9.25;5.25
27143;PMS1003;14672;50.250;8.312;2022-08-02T10:42:51;9.50;9.25;5.75
27143;PMS1003;14672;50.250;8.312;2022-08-02T10:45:19;11.25;11.25;7.00
27143;PMS1003;14672;50.250;8.312;2022-08-02T10:48:02;9.75;9.75;5.50
27143;PMS1003;14672;50.250;8.312;2022-08-02T10:53:28;8.25;8.25;4.25
27143;PMS1003;14672;50.250;8.312;2022-08-02T10:56:02;9.75;9.00;5.25
27143;PMS1003;14672;50.250;8.312;2022-08-02T10:58:31;9.50;9.50;5.50
27143;PMS1003;14672;50.250;8.312;2022-08-02T11:01:05;10.75;10.50;5.75
27143;PMS1003;14672;50.250;8.312;2022-08-02T11:03:58;10.25;10.25;5.75
27143;PMS1003;14672;50.250;8.312;2022-08-02T11:06:25;11.75;11.00;5.50
27143;PMS1003;14672;50.250;8.312;2022-08-02T11:12:04;11.75;11.75;7.50
27143;PMS1003;14672;50.250;8.312;2022-08-02T11:14:37;10.50;10.50;5.75
27143;PMS1003;14672;50.250;8.312;2022-08-02T11:17:06;9.00;9.00;5.25
27143;PMS1003;14672;50.250;8.312;2022-08-02T11:19:33;9.75;9.75;6.00
27143;PMS1003;14672;50.250;8.312;2022-08-02T11:22:19;11.25;11.25;6.75
27143;PMS1003;14672;50.250;8.312;2022-08-02T11:24:45;9.67;9.67;5.67
27143;PMS1003;14672;50.250;8.312;2022-08-02T11:27:18;9.75;9.75;5.00
27143;PMS1003;14672;50.250;8.312;2022-08-02T11:29:46;10.75;9.50;6.25
27143;PMS1003;14672;50.250;8.312;2022-08-02T11:32:22;9.50;9.50;5.25
27143;PMS1003;14672;50.250;8.312;2022-08-02T11:34:49;10.50;10.50;6.00
27143;PMS1003;14672;50.250;8.312;2022-08-02T11:37:34;7.00;7.00;4.25
27143;PMS1003;14672;50.250;8.312;2022-08-02T11:40:06;10.00;10.00;4.50
27143;PMS1003;14672;50.250;8.312;2022-08-02T11:42:36;8.75;8.75;4.75
27143;PMS1003;14672;50.250;8.312;2022-08-02T11:45:05;10.00;10.00;5.50
27143;PMS1003;14672;50.250;8.312;2022-08-02T11:50:19;10.00;10.00;5.75
27143;PMS1003;14672;50.250;8.312;2022-08-02T11:52:49;10.00;10.00;5.25
27143;PMS1003;14672;50.250;8.312;2022-08-02T11:55:17;7.75;7.75;4.75
27143;PMS1003;14672;50.250;8.312;2022-08-02T11:57:58;9.75;9.75;6.00
27143;PMS1003;14672;50.250;8.312;2022-08-02T12:00:29;11.75;10.50;7.25
27143;PMS1003;14672;50.250;8.312;2022-08-02T12:02:55;10.00;10.00;6.00
27143;PMS1003;14672;50.250;8.312;2022-08-02T12:05:21;10.00;10.00;5.00
27143;PMS1003;14672;50.250;8.312;2022-08-02T12:07:53;10.75;10.25;5.00
27143;PMS1003;14672;50.250;8.312;2022-08-02T12:10:20;10.00;10.00;6.00
27143;PMS1003;14672;50.250;8.312;2022-08-02T12:12:55;9.25;9.25;4.00
27143;PMS1003;14672;50.250;8.312;2022-08-02T12:18:11;9.50;9.50;5.00
27143;PMS1003;14672;50.250;8.312;2022-08-02T12:21:24;9.50;9.50;4.00
27143;PMS1003;14672;50.250;8.312;2022-08-02T12:23:51;10.25;9.75;5.00
27143;PMS1003;14672;50.250;8.312;2022-08-02T12:26:17;10.00;10.00;5.25
27143;PMS1003;14672;50.250;8.312;2022-08-02T12:28:43;10.00;8.67;5.00
27143;PMS1003;14672;50.250;8.312;2022-08-02T12:31:10;10.00;10.00;5.00
27143;PMS1003;14672;50.250;8.312;2022-08-02T12:33:51;9.00;9.00;4.50
27143;PMS1003;14672;50.250;8.312;2022-08-02T12:36:24;8.00;8.00;5.00
27143;PMS1003;14672;50.250;8.312;2022-08-02T12:38:54;6.00;6.00;3.00
27143;PMS1003;14672;50.250;8.312;2022-08-02T12:41:22;9.00;9.00;5.25
27143;PMS1003;14672;50.250;8.312;2022-08-02T12:43:50;9.25;9.25;5.25
27143;PMS1003;14672;50.250;8.312;2022-08-02T12:46:17;10.00;9.00;4.00
27143;PMS1003;14672;50.250;8.312;2022-08-02T12:48:46;7.50;7.50;4.00
27143;PMS1003;14672;50.250;8.312;2022-08-02T12:53:49;8.00;8.00;4.00
27143;PMS1003;14672;50.250;8.312;2022-08-02T12:56:31;8.75;8.75;4.50
27143;PMS1003;14672;50.250;8.312;2022-08-02T12:59:01;9.25;9.25;5.25
27143;PMS1003;14672;50.250;8.312;2022-08-02T13:01:28;7.00;7.00;3.25
27143;PMS1003;14672;50.250;8.312;2022-08-02T13:03:55;7.25;7.25;4.25
27143;PMS1003;14672;50.250;8.312;2022-08-02T13:06:22;8.50;8.50;4.75
27143;PMS1003;14672;50.250;8.312;2022-08-02T13:08:49;6.75;6.75;4.00
27143;PMS1003;14672;50.250;8.312;2022-08-02T13:11:18;9.50;9.25;4.50
27143;PMS1003;14672;50.250;8.312;2022-08-02T13:13:45;8.75;8.75;4.75
27143;PMS1003;14672;50.250;8.312;2022-08-02T13:16:12;7.00;7.00;3.00
27143;PMS1003;14672;50.250;8.312;2022-08-02T13:18:38;7.75;7.75;4.00
27143;PMS1003;14672;50.250;8.312;2022-08-02T13:21:05;11.50;11.50;6.75
27143;PMS1003;14672;50.250;8.312;2022-08-02T13:23:32;7.50;7.50;4.50
27143;PMS1003;14672;50.250;8.312;2022-08-02T13:26:00;6.50;6.50;3.50
27143;PMS1003;14672;50.250;8.312;2022-08-02T13:28:26;11.00;9.75;4.00
27143;PMS1003;14672;50.250;8.312;2022-08-02T13:30:52;8.25;8.00;4.50
27143;PMS1003;14672;50.250;8.312;2022-08-02T13:33:18;10.75;10.75;7.50
27143;PMS1003;14672;50.250;8.312;2022-08-02T13:35:45;9.75;8.75;4.75
27143;PMS1003;14672;50.250;8.312;2022-08-02T13:38:12;12.50;10.50;6.00
27143;PMS1003;14672;50.250;8.312;2022-08-02T13:40:38;9.00;8.00;4.00
27143;PMS1003;14672;50.250;8.312;2022-08-02T13:43:22;9.50;9.00;5.00
27143;PMS1003;14672;50.250;8.312;2022-08-02T13:45:48;8.67;8.67;5.00
27143;PMS1003;14672;50.250;8.312;2022-08-02T13:48:14;7.00;7.00;4.00
27143;PMS1003;14672;50.250;8.312;2022-08-02T13:50:39;6.67;6.67;4.00
27143;PMS1003;14672;50.250;8.312;2022-08-02T13:53:05;8.67;8.67;5.00
27143;PMS1003;14672;50.250;8.312;2022-08-02T13:55:31;8.67;8.67;5.00
27143;PMS1003;14672;50.250;8.312;2022-08-02T13:57:57;9.00;9.00;5.00
27143;PMS1003;14672;50.250;8.312;2022-08-02T14:00:23;8.00;8.00;4.50
27143;PMS1003;14672;50.250;8.312;2022-08-02T14:02:49;9.33;9.33;4.67
27143;PMS1003;14672;50.250;8.312;2022-08-02T14:05:15;7.33;7.00;4.00
27143;PMS1003;14672;50.250;8.312;2022-08-02T14:07:41;8.00;8.00;4.33
27143;PMS1003;14672;50.250;8.312;2022-08-02T14:10:07;9.00;9.00;4.00
27143;PMS1003;14672;50.250;8.312;2022-08-02T14:12:34;7.75;7.75;4.25
27143;PMS1003;14672;50.250;8.312;2022-08-02T14:14:59;8.50;8.50;4.00
27143;PMS1003;14672;50.250;8.312;2022-08-02T14:17:25;10.00;10.00;6.00
27143;PMS1003;14672;50.250;8.312;2022-08-02T14:19:51;8.00;8.00;4.33
27143;PMS1003;14672;50.250;8.312;2022-08-02T14:22:17;8.00;8.00;4.00
27143;PMS1003;14672;50.250;8.312;2022-08-02T14:24:43;8.00;8.00;4.00
27143;PMS1003;14672;50.250;8.312;2022-08-02T14:27:09;8.67;8.67;5.00
27143;PMS1003;14672;50.250;8.312;2022-08-02T14:29:35;9.25;9.25;6.00
27143;PMS1003;14672;50.250;8.312;2022-08-02T14:32:01;9.33;9.33;5.00
27143;PMS1003;14672;50.250;8.312;2022-08-02T14:34:27;7.75;7.75;4.00
27143;PMS1003;14672;50.250;8.312;2022-08-02T14:36:54;7.50;7.50;3.75
27143;PMS1003;14672;50.250;8.312;2022-08-02T14:39:20;7.75;7.75;5.00
27143;PMS1003;14672;50.250;8.312;2022-08-02T14:41:46;10.50;10.00;6.00
27143;PMS1003;14672;50.250;8.312;2022-08-02T14:44:14;8.25;8.25;4.00
27143;PMS1003;14672;50.250;8.312;2022-08-02T14:46:45;8.00;8.00;4.25
27143;PMS1003;14672;50.250;8.312;2022-08-02T14:49:11;9.25;9.25;5.25
27143;PMS1003;14672;50.250;8.312;2022-08-02T14:51:37;9.00;8.33;3.67